createdAt,value
2023-05-22T00:01:59.334Z,8.13
2023-05-22T00:04:30.035Z,8.00
2023-05-22T00:06:56.768Z,7.80
2023-05-22T00:09:25.470Z,7.77
2023-05-22T00:11:52.623Z,7.70
2023-05-22T00:14:19.259Z,7.80
2023-05-22T00:16:48.296Z,7.70
2023-05-22T00:19:17.194Z,8.17
2023-05-22T00:21:44.178Z,7.57
2023-05-22T00:24:10.746Z,8.13
2023-05-22T00:26:37.265Z,8.53
2023-05-22T00:29:05.656Z,7.90
2023-05-22T00:31:32.124Z,8.03
2023-05-22T00:33:59.199Z,8.20
2023-05-22T00:36:25.792Z,7.93
2023-05-22T00:38:52.268Z,8.20
2023-05-22T00:41:18.861Z,8.40
2023-05-22T00:43:45.580Z,7.63
2023-05-22T00:46:12.881Z,7.77
2023-05-22T00:48:39.406Z,7.73
2023-05-22T00:51:06.775Z,8.50
2023-05-22T00:53:33.976Z,8.00
2023-05-22T00:56:01.009Z,8.47
2023-05-22T00:58:27.539Z,7.50
2023-05-22T01:00:55.483Z,7.70
2023-05-22T01:03:26.879Z,8.20
2023-05-22T01:05:54.431Z,7.93
2023-05-22T01:08:21.457Z,7.57
2023-05-22T01:10:50.629Z,8.00
2023-05-22T01:13:26.087Z,7.67
2023-05-22T01:16:00.712Z,8.13
2023-05-22T01:18:37.604Z,7.97
2023-05-22T01:21:10.348Z,8.57
2023-05-22T01:24:06.449Z,8.30
2023-05-22T01:27:08.157Z,8.33
2023-05-22T01:29:48.273Z,8.10
2023-05-22T01:32:17.626Z,8.03
2023-05-22T01:34:45.587Z,7.60
2023-05-22T01:37:13.364Z,8.13
2023-05-22T01:39:40.451Z,8.30
2023-05-22T01:42:07.704Z,8.00
2023-05-22T01:44:34.136Z,8.13
2023-05-22T01:47:05.039Z,8.30
2023-05-22T01:49:35.614Z,7.60
2023-05-22T01:52:34.527Z,8.30
2023-05-22T01:55:05.644Z,8.20
2023-05-22T01:57:38.027Z,8.17
2023-05-22T02:00:15.504Z,7.80
2023-05-22T02:02:45.325Z,8.00
2023-05-22T02:05:12.546Z,7.77
2023-05-22T02:07:40.464Z,8.13
2023-05-22T02:10:08.556Z,8.10
2023-05-22T02:12:35.598Z,8.17
2023-05-22T02:15:02.105Z,8.33
2023-05-22T02:17:28.588Z,7.50
2023-05-22T02:19:55.187Z,7.93
2023-05-22T02:22:21.853Z,8.27
2023-05-22T02:24:48.860Z,7.77
2023-05-22T02:27:15.437Z,8.53
2023-05-22T02:29:41.872Z,8.50
2023-05-22T02:32:08.344Z,8.40
2023-05-22T02:34:35.063Z,7.60
2023-05-22T02:37:05.500Z,8.33
2023-05-22T02:39:31.962Z,8.60
2023-05-22T02:41:58.390Z,8.47
2023-05-22T02:44:24.897Z,8.43
2023-05-22T02:46:51.585Z,7.83
2023-05-22T02:49:18.105Z,7.80
2023-05-22T02:51:47.590Z,7.90
2023-05-22T02:54:15.609Z,7.73
2023-05-22T02:56:45.429Z,7.67
2023-05-22T02:59:11.896Z,7.87
2023-05-22T03:01:39.666Z,8.40
2023-05-22T03:04:06.633Z,7.37
2023-05-22T03:06:34.280Z,8.23
2023-05-22T03:09:01.188Z,8.90
2023-05-22T03:11:27.811Z,7.60
2023-05-22T03:13:54.260Z,7.63
2023-05-22T03:16:20.828Z,8.47
2023-05-22T03:18:47.445Z,7.60
2023-05-22T03:21:13.904Z,8.13
2023-05-22T03:23:40.329Z,7.63
2023-05-22T03:26:06.787Z,7.93
2023-05-22T03:28:33.285Z,7.80
2023-05-22T03:30:59.743Z,7.93
2023-05-22T03:33:26.183Z,7.90
2023-05-22T03:35:53.214Z,7.67
2023-05-22T03:38:19.649Z,7.40
2023-05-22T03:40:46.061Z,7.07
2023-05-22T03:43:12.779Z,7.13
2023-05-22T03:45:39.431Z,7.57
2023-05-22T03:48:06.116Z,7.50
2023-05-22T03:50:32.570Z,7.90
2023-05-22T03:52:59.434Z,7.60
2023-05-22T03:55:26.599Z,7.17
2023-05-22T03:57:53.056Z,7.20
2023-05-22T04:00:19.728Z,7.63
2023-05-22T04:02:46.886Z,7.40
2023-05-22T04:05:13.563Z,7.30
2023-05-22T04:07:40.049Z,7.63
2023-05-22T04:10:06.999Z,6.90
2023-05-22T04:12:33.575Z,7.77
2023-05-22T04:15:00.038Z,7.67
2023-05-22T04:17:31.387Z,7.20
2023-05-22T04:19:58.353Z,7.03
2023-05-22T04:22:24.962Z,7.47
2023-05-22T04:24:51.401Z,8.10
2023-05-22T04:27:18.215Z,7.60
2023-05-22T04:29:45.160Z,7.40
2023-05-22T04:32:11.614Z,7.30
2023-05-22T04:34:38.059Z,7.80
2023-05-22T04:37:05.280Z,7.00
2023-05-22T04:39:31.800Z,6.97
2023-05-22T04:41:58.273Z,7.27
2023-05-22T04:44:24.720Z,7.33
2023-05-22T04:46:51.312Z,7.63
2023-05-22T04:49:17.774Z,6.93
2023-05-22T04:51:44.217Z,7.20
2023-05-22T04:54:10.871Z,7.67
2023-05-22T04:56:37.574Z,7.10
2023-05-22T04:59:05.494Z,7.40
2023-05-22T05:01:33.490Z,7.30
2023-05-22T05:04:00.210Z,7.03
2023-05-22T05:06:27.315Z,6.80
2023-05-22T05:08:54.114Z,7.10
2023-05-22T05:11:21.612Z,6.60
2023-05-22T05:13:48.172Z,8.13
2023-05-22T05:16:14.797Z,6.63
2023-05-22T05:18:41.251Z,6.83
2023-05-22T05:21:08.088Z,7.00
2023-05-22T05:23:34.768Z,7.00
2023-05-22T05:26:01.305Z,6.47
2023-05-22T05:28:27.755Z,6.27
2023-05-22T05:30:54.207Z,6.37
2023-05-22T05:33:20.666Z,6.77
2023-05-22T05:35:47.176Z,6.60
2023-05-22T05:38:13.729Z,6.13
2023-05-22T05:40:40.399Z,6.40
2023-05-22T05:43:09.292Z,5.87
2023-05-22T05:45:36.080Z,5.90
2023-05-22T05:48:02.595Z,6.20
2023-05-22T05:50:29.062Z,6.23
2023-05-22T05:52:55.634Z,6.90
2023-05-22T05:55:22.068Z,6.23
2023-05-22T05:57:48.539Z,6.03
2023-05-22T06:00:15.355Z,6.30
2023-05-22T06:02:42.244Z,6.47
2023-05-22T06:05:09.216Z,6.40
2023-05-22T06:07:39.802Z,6.53
2023-05-22T06:10:07.324Z,6.23
2023-05-22T06:12:33.829Z,6.57
2023-05-22T06:15:00.542Z,5.97
2023-05-22T06:17:27.337Z,5.47
2023-05-22T06:19:54.058Z,5.90
2023-05-22T06:22:20.519Z,6.80
2023-05-22T06:24:46.943Z,6.10
2023-05-22T06:27:13.413Z,6.03
2023-05-22T06:29:39.858Z,6.40
2023-05-22T06:32:06.708Z,6.23
2023-05-22T06:34:33.160Z,6.07
2023-05-22T06:36:59.678Z,5.90
2023-05-22T06:39:26.510Z,6.00
2023-05-22T06:41:52.948Z,6.07
2023-05-22T06:44:20.235Z,5.63
2023-05-22T06:46:46.769Z,5.73
2023-05-22T06:49:13.279Z,5.40
2023-05-22T06:51:40.042Z,6.20
2023-05-22T06:54:07.681Z,6.07
2023-05-22T06:56:34.205Z,5.90
2023-05-22T06:59:00.869Z,5.87
2023-05-22T07:01:29.235Z,5.20
2023-05-22T07:04:00.405Z,5.10
2023-05-22T07:06:27.592Z,6.07
2023-05-22T07:08:54.104Z,5.40
2023-05-22T07:11:20.903Z,5.87
2023-05-22T07:13:47.316Z,5.17
2023-05-22T07:16:14.636Z,5.17
2023-05-22T07:18:41.981Z,5.67
2023-05-22T07:21:08.564Z,5.53
2023-05-22T07:23:35.023Z,5.37
2023-05-22T07:26:01.467Z,5.70
2023-05-22T07:28:27.911Z,5.77
2023-05-22T07:30:54.364Z,5.43
2023-05-22T07:33:20.974Z,4.83
2023-05-22T07:35:47.420Z,6.00
2023-05-22T07:38:13.875Z,5.30
2023-05-22T07:40:40.571Z,5.20
2023-05-22T07:43:07.246Z,5.40
2023-05-22T07:45:33.719Z,5.60
2023-05-22T07:48:01.898Z,6.00
2023-05-22T07:50:30.424Z,5.43
2023-05-22T07:52:56.983Z,5.50
2023-05-22T07:55:23.420Z,5.80
2023-05-22T07:57:50.753Z,5.23
2023-05-22T08:00:17.735Z,5.87
2023-05-22T08:02:45.033Z,5.37
2023-05-22T08:05:12.205Z,5.87
2023-05-22T08:07:38.836Z,5.97
2023-05-22T08:10:14.025Z,5.53
2023-05-22T08:12:40.693Z,5.43
2023-05-22T08:15:07.714Z,5.73
2023-05-22T08:17:34.920Z,6.43
2023-05-22T08:20:01.632Z,6.63
2023-05-22T08:22:29.849Z,7.00
2023-05-22T08:24:56.805Z,7.07
2023-05-22T08:27:23.307Z,7.47
2023-05-22T08:29:50.020Z,6.83
2023-05-22T08:32:16.479Z,7.13
2023-05-22T08:34:42.924Z,7.13
2023-05-22T08:37:15.503Z,7.60
2023-05-22T08:39:41.937Z,7.50
2023-05-22T08:42:08.550Z,7.67
2023-05-22T08:44:35.156Z,7.27
2023-05-22T08:47:05.058Z,7.33
2023-05-22T08:49:32.054Z,7.07
2023-05-22T08:52:09.623Z,7.17
2023-05-22T08:54:36.758Z,6.37
2023-05-22T08:57:03.383Z,7.17
2023-05-22T08:59:30.437Z,7.67
2023-05-22T09:01:58.041Z,7.33
2023-05-22T09:04:25.408Z,7.10
2023-05-22T09:06:52.210Z,6.87
2023-05-22T09:09:18.908Z,7.20
2023-05-22T09:11:45.619Z,7.47
2023-05-22T09:14:12.462Z,7.80
2023-05-22T09:16:49.900Z,8.00
2023-05-22T09:19:16.463Z,7.30
2023-05-22T09:21:44.460Z,7.20
2023-05-22T09:24:11.402Z,7.30
2023-05-22T09:26:41.450Z,7.30
2023-05-22T09:29:08.135Z,7.27
2023-05-22T09:31:44.797Z,7.80
2023-05-22T09:34:14.750Z,7.60
2023-05-22T09:36:42.009Z,7.83
2023-05-22T09:39:08.564Z,7.30
2023-05-22T09:41:39.792Z,7.50
2023-05-22T09:44:13.985Z,7.90
2023-05-22T09:46:42.474Z,7.03
2023-05-22T09:49:08.993Z,8.07
2023-05-22T09:51:36.278Z,7.40
2023-05-22T09:54:03.928Z,7.80
2023-05-22T09:56:39.206Z,6.93
2023-05-22T09:59:08.841Z,8.03
2023-05-22T10:01:36.536Z,7.47
2023-05-22T10:04:04.406Z,7.80
2023-05-22T10:06:32.240Z,7.77
2023-05-22T10:09:04.608Z,7.50
2023-05-22T10:11:31.996Z,7.60
2023-05-22T10:14:00.201Z,8.13
2023-05-22T10:16:27.608Z,8.03
2023-05-22T10:18:55.239Z,7.53
2023-05-22T10:21:22.174Z,8.27
2023-05-22T10:23:49.555Z,7.90
2023-05-22T10:26:16.879Z,7.83
2023-05-22T10:28:48.036Z,7.90
2023-05-22T10:32:05.782Z,8.87
2023-05-22T10:35:07.818Z,8.37
2023-05-22T10:37:53.942Z,8.63
2023-05-22T10:40:33.039Z,8.77
2023-05-22T10:43:01.074Z,8.87
2023-05-22T10:45:29.059Z,8.90
2023-05-22T10:48:04.210Z,8.70
2023-05-22T10:50:30.891Z,9.37
2023-05-22T10:53:21.236Z,9.50
2023-05-22T10:55:52.325Z,9.93
2023-05-22T10:58:26.404Z,9.27
2023-05-22T11:01:18.212Z,9.60
2023-05-22T11:03:58.383Z,9.27
2023-05-22T11:06:38.015Z,9.60
2023-05-22T11:09:32.636Z,9.83
2023-05-22T11:12:31.253Z,9.80
2023-05-22T11:14:59.656Z,10.13
2023-05-22T11:17:30.847Z,9.77
2023-05-22T11:20:15.524Z,10.03
2023-05-22T11:22:43.255Z,10.07
2023-05-22T11:25:11.572Z,9.47
2023-05-22T11:27:40.888Z,9.83
2023-05-22T11:30:08.764Z,9.80
2023-05-22T11:32:36.606Z,9.80
2023-05-22T11:35:05.377Z,9.90
2023-05-22T11:37:32.699Z,10.13
2023-05-22T11:40:05.831Z,10.67
2023-05-22T11:42:32.888Z,11.13
2023-05-22T11:44:59.941Z,10.40
2023-05-22T11:47:29.551Z,10.97
2023-05-22T11:50:03.178Z,11.27
2023-05-22T11:52:33.436Z,10.60
2023-05-22T11:55:00.381Z,10.60
2023-05-22T11:57:26.999Z,10.47
2023-05-22T11:59:53.564Z,10.50
2023-05-22T12:02:20.101Z,9.83
2023-05-22T12:04:46.824Z,10.70
2023-05-22T12:07:13.440Z,10.33
2023-05-22T12:09:40.091Z,10.40
2023-05-22T12:12:06.555Z,12.47
2023-05-22T12:14:33.050Z,11.80
2023-05-22T12:16:59.920Z,12.00
2023-05-22T12:19:27.430Z,10.80
2023-05-22T12:21:54.194Z,11.77
2023-05-22T12:24:23.649Z,12.30
2023-05-22T12:26:58.945Z,11.70
2023-05-22T12:29:25.585Z,11.93
2023-05-22T12:31:52.105Z,11.73
2023-05-22T12:34:19.030Z,11.90
2023-05-22T12:36:46.758Z,12.70
2023-05-22T12:39:17.980Z,13.60
2023-05-22T12:41:47.612Z,13.47
2023-05-22T12:44:16.340Z,12.90
2023-05-22T12:46:43.262Z,12.47
2023-05-22T12:49:10.532Z,12.67
2023-05-22T12:51:37.049Z,13.03
2023-05-22T12:54:03.958Z,13.33
2023-05-22T12:56:31.048Z,13.17
2023-05-22T12:58:58.059Z,13.87
2023-05-22T13:01:24.875Z,13.53
2023-05-22T13:03:52.475Z,13.73
2023-05-22T13:06:19.348Z,14.07
2023-05-22T13:08:45.857Z,12.73
2023-05-22T13:11:12.427Z,12.50
2023-05-22T13:13:38.924Z,11.63
2023-05-22T13:16:05.541Z,11.40
2023-05-22T13:18:32.151Z,11.77
2023-05-22T13:21:00.124Z,11.33
2023-05-22T13:23:26.599Z,11.20
2023-05-22T13:25:53.210Z,10.60
2023-05-22T13:28:19.745Z,11.27
2023-05-22T13:30:46.248Z,10.40
2023-05-22T13:33:13.600Z,10.43
2023-05-22T13:35:40.376Z,10.50
2023-05-22T13:38:07.176Z,10.10
2023-05-22T13:40:33.705Z,10.10
2023-05-22T13:43:00.323Z,10.43
2023-05-22T13:45:27.648Z,8.77
2023-05-22T13:47:54.226Z,9.40
2023-05-22T13:50:20.748Z,10.17
2023-05-22T13:52:47.428Z,10.73
2023-05-22T13:55:14.239Z,14.80
2023-05-22T13:57:41.213Z,12.03
2023-05-22T14:00:09.398Z,12.30
2023-05-22T14:02:36.148Z,12.67
2023-05-22T14:05:02.751Z,12.77
2023-05-22T14:07:29.229Z,12.37
2023-05-22T14:09:55.694Z,11.97
2023-05-22T14:12:22.177Z,11.77
2023-05-22T14:14:48.655Z,12.43
2023-05-22T14:17:15.267Z,12.00
2023-05-22T14:19:41.792Z,11.82
2023-05-22T14:22:08.519Z,11.30
2023-05-22T14:24:35.575Z,11.25
2023-05-22T14:27:02.234Z,10.55
2023-05-22T14:29:28.682Z,10.32
2023-05-22T14:32:02.989Z,9.70
2023-05-22T14:34:29.778Z,12.13
2023-05-22T14:36:59.063Z,11.55
2023-05-22T14:39:25.972Z,11.57
2023-05-22T14:41:53.262Z,12.20
2023-05-22T14:44:19.915Z,11.57
2023-05-22T14:46:46.548Z,11.40
2023-05-22T14:49:14.115Z,11.40
2023-05-22T14:51:40.753Z,12.38
2023-05-22T14:54:08.174Z,12.88
2023-05-22T14:56:34.612Z,11.93
2023-05-22T14:59:01.175Z,11.52
2023-05-22T15:01:27.633Z,11.65
2023-05-22T15:03:54.118Z,11.20
2023-05-22T15:06:20.623Z,10.77
2023-05-22T15:08:47.140Z,9.95
2023-05-22T15:11:13.573Z,10.93
2023-05-22T15:13:40.043Z,10.10
2023-05-22T15:16:07.045Z,11.68
2023-05-22T15:18:33.491Z,11.25
2023-05-22T15:21:01.027Z,10.95
2023-05-22T15:23:27.487Z,11.05
2023-05-22T15:25:54.269Z,12.10
2023-05-22T15:28:21.173Z,10.73
2023-05-22T15:30:47.684Z,13.63
2023-05-22T15:33:14.974Z,14.38
2023-05-22T15:35:43.383Z,15.18
2023-05-22T15:38:13.200Z,15.68
2023-05-22T15:40:40.652Z,16.10
2023-05-22T15:43:07.552Z,15.95
2023-05-22T15:45:35.945Z,16.15
2023-05-22T15:48:06.111Z,16.35
2023-05-22T15:50:33.760Z,14.93
2023-05-22T15:53:00.699Z,14.82
2023-05-22T15:55:27.178Z,14.75
2023-05-22T15:57:53.699Z,16.25
2023-05-22T16:00:21.452Z,15.80
2023-05-22T16:02:49.472Z,16.70
2023-05-22T16:05:16.081Z,16.05
2023-05-22T16:07:42.712Z,15.18
2023-05-22T16:10:09.818Z,15.35
2023-05-22T16:12:36.669Z,15.80
2023-05-22T16:15:06.625Z,15.90
2023-05-22T16:17:33.365Z,16.30
2023-05-22T16:19:59.875Z,15.90
2023-05-22T16:22:36.384Z,17.33
2023-05-22T16:25:13.091Z,16.50
2023-05-22T16:27:39.554Z,15.83
2023-05-22T16:30:06.804Z,15.53
2023-05-22T16:32:33.315Z,15.10
2023-05-22T16:34:59.799Z,16.40
2023-05-22T16:37:26.292Z,16.43
2023-05-22T16:39:52.782Z,15.83
2023-05-22T16:42:19.243Z,15.37
2023-05-22T16:44:45.747Z,15.90
2023-05-22T16:47:12.424Z,15.40
2023-05-22T16:49:40.466Z,15.97
2023-05-22T16:52:07.068Z,15.60
2023-05-22T16:54:33.625Z,17.17
2023-05-22T16:57:00.254Z,15.33
2023-05-22T16:59:26.899Z,16.70
2023-05-22T17:01:53.381Z,15.93
2023-05-22T17:04:20.700Z,15.43
2023-05-22T17:06:48.035Z,15.97
2023-05-22T17:09:14.520Z,16.17
2023-05-22T17:11:40.992Z,14.90
2023-05-22T17:14:07.478Z,14.47
2023-05-22T17:16:34.174Z,15.37
2023-05-22T17:19:01.818Z,15.17
2023-05-22T17:21:28.764Z,14.80
2023-05-22T17:23:55.254Z,15.27
2023-05-22T17:26:21.803Z,15.03
2023-05-22T17:28:48.274Z,14.83
2023-05-22T17:31:14.808Z,15.00
2023-05-22T17:33:41.673Z,14.03
2023-05-22T17:36:08.126Z,14.27
2023-05-22T17:38:34.595Z,14.13
2023-05-22T17:41:01.044Z,14.10
2023-05-22T17:43:27.541Z,14.70
2023-05-22T17:45:54.451Z,14.03
2023-05-22T17:48:23.798Z,13.37
2023-05-22T17:50:50.653Z,14.27
2023-05-22T17:53:17.862Z,14.13
2023-05-22T17:55:46.571Z,13.43
2023-05-22T17:58:16.867Z,12.97
2023-05-22T18:00:43.456Z,13.70
2023-05-22T18:03:10.168Z,13.07
2023-05-22T18:05:36.777Z,14.67
2023-05-22T18:08:03.280Z,13.17
2023-05-22T18:10:29.747Z,13.40
2023-05-22T18:12:56.403Z,14.17
2023-05-22T18:15:22.921Z,14.50
2023-05-22T18:17:49.408Z,14.63
2023-05-22T18:20:16.760Z,13.50
2023-05-22T18:22:43.258Z,12.23
2023-05-22T18:25:09.789Z,12.93
2023-05-22T18:27:36.386Z,13.10
2023-05-22T18:30:04.975Z,12.20
2023-05-22T18:32:31.832Z,12.90
2023-05-22T18:34:59.928Z,12.90
2023-05-22T18:37:26.575Z,13.50
2023-05-22T18:39:53.020Z,13.63
2023-05-22T18:42:19.568Z,15.90
2023-05-22T18:44:48.198Z,16.87
2023-05-22T18:47:15.715Z,16.67
2023-05-22T18:49:42.194Z,16.20
2023-05-22T18:52:08.696Z,16.77
2023-05-22T18:54:35.236Z,17.47
2023-05-22T18:57:01.923Z,17.77
2023-05-22T18:59:28.350Z,17.30
2023-05-22T19:01:54.855Z,16.80
2023-05-22T19:04:21.422Z,15.77
2023-05-22T19:06:47.943Z,17.13
2023-05-22T19:09:14.637Z,16.40
2023-05-22T19:11:41.338Z,16.83
2023-05-22T19:14:07.838Z,17.03
2023-05-22T19:16:34.608Z,15.67
2023-05-22T19:19:01.176Z,16.17
2023-05-22T19:21:27.664Z,13.77
2023-05-22T19:23:54.103Z,13.93
2023-05-22T19:26:20.963Z,14.03
2023-05-22T19:28:47.541Z,14.67
2023-05-22T19:31:14.067Z,13.93
2023-05-22T19:33:40.549Z,14.70
2023-05-22T19:36:07.098Z,14.90
2023-05-22T19:38:33.650Z,14.13
2023-05-22T19:41:00.067Z,13.83
2023-05-22T19:43:26.679Z,14.77
2023-05-22T19:45:54.083Z,14.73
2023-05-22T19:48:20.599Z,14.97
2023-05-22T19:50:47.109Z,15.27
2023-05-22T19:53:13.797Z,14.17
2023-05-22T19:55:40.997Z,14.00
2023-05-22T19:58:07.536Z,13.20
2023-05-22T20:00:35.582Z,12.90
2023-05-22T20:03:02.059Z,14.30
2023-05-22T20:05:28.898Z,13.13
2023-05-22T20:07:55.646Z,13.50
2023-05-22T20:10:23.820Z,13.57
2023-05-22T20:12:54.600Z,11.77
2023-05-22T20:15:22.822Z,12.60
2023-05-22T20:17:51.972Z,12.20
2023-05-22T20:20:19.500Z,12.10
2023-05-22T20:22:45.973Z,12.50
2023-05-22T20:25:13.229Z,13.10
2023-05-22T20:27:39.711Z,13.37
2023-05-22T20:30:07.774Z,13.00
2023-05-22T20:32:34.263Z,12.73
2023-05-22T20:35:00.714Z,12.30
2023-05-22T20:37:27.151Z,12.63
2023-05-22T20:39:53.589Z,13.53
2023-05-22T20:42:20.069Z,13.60
2023-05-22T20:44:46.771Z,15.40
2023-05-22T20:47:13.390Z,15.10
2023-05-22T20:49:40.391Z,15.50
2023-05-22T20:52:07.081Z,17.67
2023-05-22T20:54:34.895Z,17.93
2023-05-22T20:57:01.960Z,20.23
2023-05-22T20:59:28.995Z,20.70
2023-05-22T21:01:56.887Z,21.27
2023-05-22T21:04:23.867Z,20.33
2023-05-22T21:06:50.711Z,20.17
2023-05-22T21:09:17.316Z,18.70
2023-05-22T21:11:43.799Z,18.53
2023-05-22T21:14:10.373Z,19.10
2023-05-22T21:16:39.305Z,18.37
2023-05-22T21:19:07.554Z,18.43
2023-05-22T21:21:35.679Z,18.53
